Time;durP1;ratioP1;P1;durP2;ratioP2;P2;SDS_P1;SDS_P2;PMS_P1;PMS_P2;Temp;Humidity;BMP_temperature;BMP_pressure;BME280_temperature;BME280_humidity;BME280_pressure;Samples;Min_cycle;Max_cycle;Signal;HPM_P1;HPM_P2
2022/12/15 00:39:41;;;;;;;64.90;25.67;;;;;;;;;;5032401;28;20087;-83
2022/12/15 00:42:07;;;;;;;70.93;25.90;;;;;;;;;;5030376;28;20055;-83
2022/12/15 00:44:32;;;;;;;62.30;24.83;;;;;;;;;;5031765;28;20424;-83
2022/12/15 00:46:58;;;;;;;62.43;24.47;;;;;;;;;;5030022;28;20155;-83
2022/12/15 01:22:18;;;;;;;63.73;24.90;;;;;;;;;;5023211;28;20492;-83
2022/12/15 01:24:44;;;;;;;61.47;22.57;;;;;;;;;;5040961;28;20133;-83
2022/12/15 01:27:09;;;;;;;63.27;23.33;;;;;;;;;;5030752;28;20064;-83
2022/12/15 01:29:34;;;;;;;60.13;24.83;;;;;;;;;;5033565;28;20377;-83
2022/12/15 01:31:59;;;;;;;68.00;27.23;;;;;;;;;;5034705;28;20484;-83
2022/12/15 01:34:24;;;;;;;63.60;24.93;;;;;;;;;;5035446;28;20026;-83
2022/12/15 01:36:50;;;;;;;67.33;24.07;;;;;;;;;;5034576;28;20442;-83
2022/12/15 01:39:15;;;;;;;59.43;24.37;;;;;;;;;;5033682;28;20053;-83
2022/12/15 01:41:40;;;;;;;62.57;25.17;;;;;;;;;;5033704;28;20108;-83
2022/12/15 01:44:16;;;;;;;56.97;24.23;;;;;;;;;;5033596;28;20021;-83
2022/12/15 01:46:41;;;;;;;60.30;24.37;;;;;;;;;;5032887;28;20477;-83
2022/12/15 01:49:15;;;;;;;63.40;25.03;;;;;;;;;;5033889;28;20100;-82
2022/12/15 01:51:43;;;;;;;61.17;24.43;;;;;;;;;;5029854;28;20064;-83
2022/12/15 01:54:11;;;;;;;59.77;23.87;;;;;;;;;;5033350;28;20070;-83
2022/12/15 01:56:39;;;;;;;59.30;23.57;;;;;;;;;;5032498;28;20021;-83
2022/12/15 01:59:06;;;;;;;57.97;23.63;;;;;;;;;;5032945;28;20383;-83
2022/12/15 02:01:31;;;;;;;68.17;24.37;;;;;;;;;;5033217;28;20029;-83
2022/12/15 02:03:56;;;;;;;60.20;24.67;;;;;;;;;;5034508;28;20466;-83
2022/12/15 02:06:24;;;;;;;63.13;25.27;;;;;;;;;;5033194;28;20473;-83
2022/12/15 02:08:51;;;;;;;57.13;23.00;;;;;;;;;;5027181;28;20025;-83
2022/12/15 02:11:35;;;;;;;63.87;23.03;;;;;;;;;;5048821;28;20036;-83
2022/12/15 02:14:04;;;;;;;57.47;23.47;;;;;;;;;;5049678;28;20457;-82
2022/12/15 02:16:32;;;;;;;50.73;22.23;;;;;;;;;;5033503;28;20028;-83
2022/12/15 02:19:22;;;;;;;56.10;23.97;;;;;;;;;;5049514;28;20112;-83
2022/12/15 02:21:54;;;;;;;59.77;23.83;;;;;;;;;;5028365;28;20456;-83
2022/12/15 02:24:37;;;;;;;57.13;22.03;;;;;;;;;;5025497;28;20053;-83
2022/12/15 02:27:15;;;;;;;58.60;22.67;;;;;;;;;;5033323;28;20021;-83
2022/12/15 02:29:49;;;;;;;65.03;23.50;;;;;;;;;;5032648;28;20079;-83
2022/12/15 02:32:18;;;;;;;60.27;24.33;;;;;;;;;;5049090;28;20422;-83
2022/12/15 02:34:44;;;;;;;65.77;24.90;;;;;;;;;;5032874;28;20385;-83
2022/12/15 02:37:12;;;;;;;62.90;25.47;;;;;;;;;;5043260;28;20022;-83
2022/12/15 02:39:37;;;;;;;53.13;22.07;;;;;;;;;;5024117;28;20469;-83
2022/12/15 02:42:03;;;;;;;54.80;21.97;;;;;;;;;;5032413;28;20047;-83
2022/12/15 02:44:28;;;;;;;59.03;22.80;;;;;;;;;;5034031;28;20477;-84
2022/12/15 02:47:12;;;;;;;60.57;22.13;;;;;;;;;;5048287;28;20017;-83
2022/12/15 02:49:37;;;;;;;52.90;22.23;;;;;;;;;;5049046;28;20147;-84
2022/12/15 02:52:17;;;;;;;70.57;25.73;;;;;;;;;;5048731;28;20045;-83
2022/12/15 02:55:01;;;;;;;56.23;22.70;;;;;;;;;;5048980;28;20021;-83
2022/12/15 02:57:35;;;;;;;55.00;22.47;;;;;;;;;;5047416;28;20021;-83
2022/12/15 03:00:02;;;;;;;66.13;23.10;;;;;;;;;;5033656;28;20150;-83
2022/12/15 03:02:29;;;;;;;58.03;23.43;;;;;;;;;;5031941;28;20056;-83
2022/12/15 03:04:55;;;;;;;60.17;24.30;;;;;;;;;;5032055;28;20159;-83
2022/12/15 03:07:22;;;;;;;66.77;24.03;;;;;;;;;;5027201;28;20113;-83
2022/12/15 03:09:47;;;;;;;68.53;24.70;;;;;;;;;;5031804;28;20055;-84
2022/12/15 03:12:12;;;;;;;54.67;22.83;;;;;;;;;;5031974;28;20044;-84
2022/12/15 03:14:37;;;;;;;62.90;23.57;;;;;;;;;;5033048;28;20025;-83
2022/12/15 03:17:05;;;;;;;57.57;22.60;;;;;;;;;;5032153;28;20024;-83
2022/12/15 03:19:31;;;;;;;61.87;22.67;;;;;;;;;;5023079;28;20112;-83
2022/12/15 03:21:56;;;;;;;57.80;23.10;;;;;;;;;;5011653;28;20060;-83
2022/12/15 03:24:21;;;;;;;60.10;24.47;;;;;;;;;;5017020;28;20096;-83
2022/12/15 03:26:48;;;;;;;63.27;23.30;;;;;;;;;;5024310;28;20052;-83
2022/12/15 03:29:14;;;;;;;61.30;23.00;;;;;;;;;;5019223;28;20022;-83
2022/12/15 03:31:39;;;;;;;57.43;22.27;;;;;;;;;;5029707;28;20322;-83
2022/12/15 03:34:04;;;;;;;54.00;22.27;;;;;;;;;;5031688;28;20410;-83
2022/12/15 03:36:29;;;;;;;61.67;24.83;;;;;;;;;;5029324;28;20033;-83
2022/12/15 03:38:55;;;;;;;68.67;25.30;;;;;;;;;;5028275;28;20026;-83
2022/12/15 03:41:20;;;;;;;65.30;23.30;;;;;;;;;;5031208;28;20028;-83
2022/12/15 03:43:45;;;;;;;61.37;22.93;;;;;;;;;;5032755;28;20016;-83
2022/12/15 03:46:10;;;;;;;57.33;22.83;;;;;;;;;;5031114;28;20429;-83
2022/12/15 03:48:36;;;;;;;61.03;22.83;;;;;;;;;;5030418;28;20017;-83
2022/12/15 03:51:01;;;;;;;61.53;24.60;;;;;;;;;;5030735;28;20028;-83
2022/12/15 03:53:26;;;;;;;64.73;23.90;;;;;;;;;;5030178;28;20021;-83
2022/12/15 03:55:51;;;;;;;61.40;22.83;;;;;;;;;;5018195;28;20461;-83
2022/12/15 03:58:16;;;;;;;64.43;22.90;;;;;;;;;;5030657;28;20057;-83
2022/12/15 04:00:42;;;;;;;61.17;22.77;;;;;;;;;;5030905;28;20121;-83
2022/12/15 04:03:09;;;;;;;59.83;23.00;;;;;;;;;;5031303;28;20024;-83
2022/12/15 04:05:34;;;;;;;55.57;21.63;;;;;;;;;;5032296;28;20456;-83
2022/12/15 04:08:00;;;;;;;56.90;24.00;;;;;;;;;;5030502;28;20061;-82
2022/12/15 04:10:27;;;;;;;60.57;22.57;;;;;;;;;;5032092;28;20075;-83
2022/12/15 04:12:56;;;;;;;56.83;22.93;;;;;;;;;;5031057;28;20465;-83
2022/12/15 04:15:21;;;;;;;65.00;22.67;;;;;;;;;;5031021;28;20130;-83
2022/12/15 04:17:46;;;;;;;59.90;22.97;;;;;;;;;;5030119;28;20021;-83
2022/12/15 04:20:12;;;;;;;59.20;23.20;;;;;;;;;;5030568;28;20535;-83
2022/12/15 04:22:38;;;;;;;65.57;24.77;;;;;;;;;;5030630;28;20017;-83
2022/12/15 05:33:22;;;;;;;59.50;24.33;;;;;;;;;;5035720;28;20476;-82
2022/12/15 05:35:47;;;;;;;72.90;24.10;;;;;;;;;;5035334;28;20049;-83
2022/12/15 05:38:12;;;;;;;64.03;23.87;;;;;;;;;;5033100;28;20147;-83
2022/12/15 05:40:38;;;;;;;59.30;23.90;;;;;;;;;;5033791;28;20075;-83
2022/12/15 05:43:03;;;;;;;64.33;25.20;;;;;;;;;;5033610;28;20480;-82
2022/12/15 05:45:28;;;;;;;61.23;23.30;;;;;;;;;;5034942;28;20041;-82
2022/12/15 05:47:54;;;;;;;60.27;23.63;;;;;;;;;;5033001;28;20088;-83
2022/12/15 05:50:19;;;;;;;62.63;23.03;;;;;;;;;;5034818;28;20021;-83
2022/12/15 05:52:45;;;;;;;68.70;24.43;;;;;;;;;;5033895;28;20026;-83
2022/12/15 05:55:10;;;;;;;59.73;22.60;;;;;;;;;;5034713;28;20009;-83
2022/12/15 05:57:35;;;;;;;62.43;23.60;;;;;;;;;;5032699;28;20109;-83
2022/12/15 06:00:00;;;;;;;57.77;22.53;;;;;;;;;;5033323;28;20028;-83
2022/12/15 06:02:29;;;;;;;55.07;22.83;;;;;;;;;;5033446;28;20020;-83
2022/12/15 06:04:54;;;;;;;61.67;23.30;;;;;;;;;;5033085;28;20017;-83
2022/12/15 06:07:19;;;;;;;59.37;22.60;;;;;;;;;;5032313;28;20469;-83
2022/12/15 06:09:44;;;;;;;58.70;22.60;;;;;;;;;;5033282;28;20033;-83
2022/12/15 06:12:09;;;;;;;54.00;21.27;;;;;;;;;;5033230;28;20495;-83
2022/12/15 06:14:35;;;;;;;61.77;23.80;;;;;;;;;;5033282;28;20045;-83
2022/12/15 06:17:00;;;;;;;61.47;25.50;;;;;;;;;;5032747;28;20052;-83
2022/12/15 06:19:25;;;;;;;60.93;23.07;;;;;;;;;;5032600;28;20026;-83
2022/12/15 06:21:50;;;;;;;63.70;23.10;;;;;;;;;;5033088;28;20021;-83
2022/12/15 06:24:17;;;;;;;59.00;23.83;;;;;;;;;;5016854;28;20449;-84
2022/12/15 06:26:42;;;;;;;63.20;24.80;;;;;;;;;;5032955;28;20022;-83
2022/12/15 06:29:09;;;;;;;63.50;23.87;;;;;;;;;;5033273;28;20075;-83
2022/12/15 06:31:35;;;;;;;64.10;24.50;;;;;;;;;;5032792;28;20112;-83
2022/12/15 06:34:02;;;;;;;59.77;24.23;;;;;;;;;;5032986;28;20113;-83
2022/12/15 06:36:28;;;;;;;74.37;28.37;;;;;;;;;;5032710;28;20029;-83
2022/12/15 06:38:53;;;;;;;77.73;30.97;;;;;;;;;;5032220;28;20084;-83
2022/12/15 06:41:19;;;;;;;69.40;28.43;;;;;;;;;;5033791;28;20013;-83
2022/12/15 06:43:48;;;;;;;71.97;27.30;;;;;;;;;;5030442;28;20028;-83
2022/12/15 06:46:13;;;;;;;71.50;28.33;;;;;;;;;;5033204;28;20075;-83
2022/12/15 06:48:41;;;;;;;82.80;30.00;;;;;;;;;;5031219;28;20025;-83
2022/12/15 06:51:06;;;;;;;71.77;28.90;;;;;;;;;;5032447;28;20033;-83
2022/12/15 06:53:34;;;;;;;69.40;26.53;;;;;;;;;;5030707;28;20025;-82
2022/12/15 06:56:00;;;;;;;64.27;25.80;;;;;;;;;;5028771;28;20033;-83
2022/12/15 06:58:26;;;;;;;70.47;26.07;;;;;;;;;;5032424;28;20026;-83
2022/12/15 07:00:51;;;;;;;69.73;27.63;;;;;;;;;;5032773;28;20473;-83
2022/12/15 07:03:18;;;;;;;68.67;26.93;;;;;;;;;;5031353;28;20037;-83
2022/12/15 07:05:43;;;;;;;68.60;25.57;;;;;;;;;;5027509;28;20042;-83
2022/12/15 07:08:13;;;;;;;61.77;23.97;;;;;;;;;;5031516;28;20021;-83
2022/12/15 07:10:39;;;;;;;62.57;25.13;;;;;;;;;;5032922;28;20030;-83
2022/12/15 07:13:04;;;;;;;67.47;24.53;;;;;;;;;;5032083;28;20067;-83
2022/12/15 07:15:30;;;;;;;62.40;23.87;;;;;;;;;;5029812;28;20521;-83
2022/12/15 07:17:55;;;;;;;73.60;25.10;;;;;;;;;;5028089;28;20027;-83
2022/12/15 07:20:20;;;;;;;66.67;24.27;;;;;;;;;;5023951;28;20116;-84
2022/12/15 07:22:50;;;;;;;72.80;26.83;;;;;;;;;;5031741;28;20025;-84
2022/12/15 07:25:15;;;;;;;79.97;29.07;;;;;;;;;;5030402;28;20029;-83
2022/12/15 07:27:40;;;;;;;66.97;26.27;;;;;;;;;;5027762;28;20487;-83
2022/12/15 07:30:06;;;;;;;66.37;26.63;;;;;;;;;;5035861;28;20039;-84
2022/12/15 07:32:31;;;;;;;51.13;17.53;;;;;;;;;;5039295;28;20025;-85
2022/12/15 07:34:57;;;;;;;78.00;26.00;;;;;;;;;;5032141;28;20074;-84
2022/12/15 07:37:22;;;;;;;64.20;27.33;;;;;;;;;;5031443;28;20528;-84
2022/12/15 07:39:47;;;;;;;69.43;27.13;;;;;;;;;;5031719;28;20032;-84
2022/12/15 07:42:13;;;;;;;62.13;25.33;;;;;;;;;;5032972;28;20025;-84
2022/12/15 07:44:38;;;;;;;67.33;24.60;;;;;;;;;;5031591;28;20068;-84
2022/12/15 07:47:03;;;;;;;67.10;25.60;;;;;;;;;;5029906;28;20032;-84
2022/12/15 07:49:28;;;;;;;67.53;25.93;;;;;;;;;;5030244;28;20029;-84
2022/12/15 07:51:57;;;;;;;68.13;24.83;;;;;;;;;;5029711;28;20075;-84
2022/12/15 07:54:22;;;;;;;60.47;24.13;;;;;;;;;;5030358;28;20029;-82
2022/12/15 07:56:47;;;;;;;65.63;26.07;;;;;;;;;;5030484;28;20492;-82
2022/12/15 07:59:13;;;;;;;65.20;26.40;;;;;;;;;;5029536;28;20033;-82
2022/12/15 08:01:38;;;;;;;64.83;24.93;;;;;;;;;;5029622;28;20114;-82
2022/12/15 08:04:03;;;;;;;65.67;25.10;;;;;;;;;;5030344;28;20385;-82
2022/12/15 08:06:28;;;;;;;72.17;25.33;;;;;;;;;;5029231;28;20453;-81
2022/12/15 08:08:54;;;;;;;66.70;25.90;;;;;;;;;;5030820;28;20461;-82
2022/12/15 08:11:20;;;;;;;68.00;27.23;;;;;;;;;;5030907;28;20492;-82
2022/12/15 08:13:46;;;;;;;63.63;25.77;;;;;;;;;;5030857;28;20032;-82
2022/12/15 08:16:11;;;;;;;68.00;27.63;;;;;;;;;;5026703;28;20025;-82
2022/12/15 08:18:36;;;;;;;71.50;27.13;;;;;;;;;;5032784;28;20627;-82
2022/12/15 08:21:02;;;;;;;65.13;25.17;;;;;;;;;;5029312;28;20031;-82
2022/12/15 08:23:27;;;;;;;65.97;25.40;;;;;;;;;;5031047;28;20025;-82
2022/12/15 08:25:53;;;;;;;67.40;26.47;;;;;;;;;;5027820;28;20028;-82
2022/12/15 08:28:18;;;;;;;78.20;28.70;;;;;;;;;;5023920;28;20470;-82
2022/12/15 08:30:43;;;;;;;79.53;26.70;;;;;;;;;;5022922;28;20528;-82
2022/12/15 08:33:09;;;;;;;72.53;26.27;;;;;;;;;;5030730;28;20022;-82
2022/12/15 08:35:37;;;;;;;67.47;26.13;;;;;;;;;;5024135;28;20091;-82
2022/12/15 08:38:02;;;;;;;59.30;25.03;;;;;;;;;;5038718;28;20098;-83
2022/12/15 08:40:27;;;;;;;72.27;26.07;;;;;;;;;;5030752;28;20052;-80
2022/12/15 08:42:53;;;;;;;72.50;25.33;;;;;;;;;;5030597;28;20101;-80
2022/12/15 08:45:18;;;;;;;62.97;24.70;;;;;;;;;;5030141;28;20457;-84
2022/12/15 08:47:43;;;;;;;68.00;24.67;;;;;;;;;;5030901;28;20029;-84
2022/12/15 08:50:08;;;;;;;64.77;26.50;;;;;;;;;;5027821;28;20047;-83
2022/12/15 08:52:34;;;;;;;66.23;24.93;;;;;;;;;;5025959;28;20044;-84
2022/12/15 08:54:59;;;;;;;71.00;25.57;;;;;;;;;;5027900;28;20043;-82
2022/12/15 08:57:24;;;;;;;63.33;24.93;;;;;;;;;;5044204;28;20033;-84
2022/12/15 08:59:49;;;;;;;61.17;24.43;;;;;;;;;;5026934;28;20033;-83
2022/12/15 09:02:15;;;;;;;64.40;25.67;;;;;;;;;;5028223;28;20025;-84
2022/12/15 09:04:40;;;;;;;62.30;24.47;;;;;;;;;;5029604;28;20018;-84
2022/12/15 09:07:06;;;;;;;68.13;24.97;;;;;;;;;;5030425;28;20422;-84
2022/12/15 09:09:31;;;;;;;65.40;24.97;;;;;;;;;;5029099;28;20022;-85
2022/12/15 09:11:56;;;;;;;66.00;24.57;;;;;;;;;;5031700;28;20520;-84
2022/12/15 09:14:22;;;;;;;73.00;25.67;;;;;;;;;;5028354;28;20116;-84
2022/12/15 09:16:47;;;;;;;60.80;24.40;;;;;;;;;;5028890;28;20026;-85
2022/12/15 09:19:12;;;;;;;62.93;24.90;;;;;;;;;;5030435;28;20053;-85
2022/12/15 09:21:38;;;;;;;61.27;22.87;;;;;;;;;;5032042;28;20246;-85
2022/12/15 09:24:04;;;;;;;55.73;23.33;;;;;;;;;;5030256;28;20033;-85
2022/12/15 09:26:30;;;;;;;62.47;22.47;;;;;;;;;;5029765;28;20029;-85
2022/12/15 09:28:56;;;;;;;65.73;23.10;;;;;;;;;;5018566;28;20033;-85
2022/12/15 09:31:22;;;;;;;60.27;24.10;;;;;;;;;;5028645;28;20022;-85
2022/12/15 09:33:48;;;;;;;65.30;25.20;;;;;;;;;;5026277;28;20167;-85
2022/12/15 09:36:13;;;;;;;61.70;23.30;;;;;;;;;;5042308;28;20025;-85
2022/12/15 09:38:39;;;;;;;56.90;23.37;;;;;;;;;;5030240;28;20016;-85
2022/12/15 09:41:17;;;;;;;61.30;23.80;;;;;;;;;;5029696;28;20096;-85
2022/12/15 09:43:45;;;;;;;71.37;26.67;;;;;;;;;;5030121;28;20096;-85
2022/12/15 09:46:19;;;;;;;71.37;27.13;;;;;;;;;;5028026;28;20444;-85
2022/12/15 09:48:45;;;;;;;66.90;25.77;;;;;;;;;;5040142;28;20048;-85
2022/12/15 09:51:13;;;;;;;69.53;27.17;;;;;;;;;;5040808;28;20029;-87
2022/12/15 09:53:38;;;;;;;67.30;25.40;;;;;;;;;;5035188;28;20109;-86
2022/12/15 09:56:06;;;;;;;64.93;27.07;;;;;;;;;;5030969;28;20022;-86
2022/12/15 09:58:50;;;;;;;71.37;26.10;;;;;;;;;;5042326;28;20045;-86
2022/12/15 10:01:16;;;;;;;65.33;26.90;;;;;;;;;;5024025;28;20025;-85
2022/12/15 10:04:00;;;;;;;64.87;25.07;;;;;;;;;;5029670;28;20021;-85
2022/12/15 10:06:30;;;;;;;76.50;27.17;;;;;;;;;;5046280;28;20033;-85
2022/12/15 10:08:59;;;;;;;66.97;26.77;;;;;;;;;;5033701;28;20365;-86
2022/12/15 10:11:33;;;;;;;80.37;28.43;;;;;;;;;;5034163;28;20485;-85
2022/12/15 10:14:18;;;;;;;68.83;27.33;;;;;;;;;;5040611;28;20014;-86
2022/12/15 10:16:51;;;;;;;78.73;28.43;;;;;;;;;;5043892;28;20175;-87
2022/12/15 10:19:20;;;;;;;79.33;29.40;;;;;;;;;;5047124;28;20417;-91
2022/12/15 10:21:46;;;;;;;82.23;30.07;;;;;;;;;;5026785;28;20081;-89
2022/12/15 10:24:19;;;;;;;73.67;27.70;;;;;;;;;;5021344;28;20029;-91
2022/12/15 10:26:51;;;;;;;69.93;25.60;;;;;;;;;;5033593;28;20090;-91
2022/12/15 10:29:17;;;;;;;;;;;;;;;;;;5031651;28;20025;-91
2022/12/15 10:31:45;;;;;;;67.22;26.98;;;;;;;;;;5035329;28;19905;-91
2022/12/15 10:34:18;;;;;;;74.93;28.03;;;;;;;;;;5032933;28;20014;-91
2022/12/15 10:36:49;;;;;;;66.33;26.60;;;;;;;;;;5019906;28;20026;-91
2022/12/15 10:39:14;;;;;;;64.60;25.37;;;;;;;;;;5033917;28;20014;-91
2022/12/15 10:41:39;;;;;;;64.27;25.60;;;;;;;;;;5047370;28;20418;-92
2022/12/15 10:44:20;;;;;;;66.93;26.53;;;;;;;;;;5035309;28;20017;-91
2022/12/15 10:46:45;;;;;;;65.67;24.50;;;;;;;;;;5049310;28;20019;-92
2022/12/15 10:49:10;;;;;;;71.40;26.37;;;;;;;;;;5035366;28;20476;-92
2022/12/15 10:51:41;;;;;;;66.20;26.57;;;;;;;;;;5050844;28;20036;-92
2022/12/15 10:54:08;;;;;;;71.47;29.47;;;;;;;;;;5035283;28;20014;-92
2022/12/15 10:56:34;;;;;;;74.23;30.43;;;;;;;;;;5037561;28;20044;-92
2022/12/15 10:59:02;;;;;;;77.00;29.37;;;;;;;;;;5038685;28;20422;-90
2022/12/15 11:01:29;;;;;;;72.33;29.20;;;;;;;;;;5020106;28;20362;-88
2022/12/15 11:03:55;;;;;;;67.57;28.07;;;;;;;;;;5036213;28;20449;-88
2022/12/15 11:06:20;;;;;;;75.63;29.47;;;;;;;;;;5032716;28;20163;-89
2022/12/15 11:08:46;;;;;;;72.37;28.27;;;;;;;;;;5022443;28;20461;-88
2022/12/15 11:14:17;;;;;;;70.90;28.13;;;;;;;;;;5034491;28;20087;-89
2022/12/15 11:16:47;;;;;;;72.47;27.63;;;;;;;;;;5032791;28;20117;-89
2022/12/15 11:19:15;;;;;;;65.27;27.53;;;;;;;;;;5033758;28;20041;-89
2022/12/15 11:21:44;;;;;;;68.17;27.03;;;;;;;;;;5032854;28;20021;-88
2022/12/15 11:24:10;;;;;;;66.00;27.13;;;;;;;;;;5032042;28;20013;-89
2022/12/15 11:26:41;;;;;;;56.93;26.00;;;;;;;;;;5040209;28;20492;-89
2022/12/15 11:29:33;;;;;;;67.63;26.97;;;;;;;;;;5022789;28;20025;-88
2022/12/15 11:31:59;;;;;;;57.63;23.97;;;;;;;;;;5032402;28;20034;-89
2022/12/15 11:34:26;;;;;;;58.60;23.20;;;;;;;;;;5032240;28;20044;-89
2022/12/15 11:36:51;;;;;;;56.60;23.97;;;;;;;;;;5032415;28;20021;-89
2022/12/15 11:39:35;;;;;;;66.47;25.13;;;;;;;;;;5048031;28;20029;-89
2022/12/15 11:42:09;;;;;;;69.93;28.20;;;;;;;;;;5021350;28;20017;-89
2022/12/15 11:44:49;;;;;;;64.63;25.43;;;;;;;;;;5032235;28;20021;-89
2022/12/15 11:47:30;;;;;;;61.90;27.50;;;;;;;;;;5023016;28;20022;-89
2022/12/15 11:50:07;;;;;;;62.23;27.07;;;;;;;;;;5031637;28;20461;-89
2022/12/15 11:52:38;;;;;;;65.23;27.47;;;;;;;;;;5032068;28;20027;-88
2022/12/15 11:55:16;;;;;;;59.63;25.10;;;;;;;;;;5033144;28;20084;-89
2022/12/15 11:57:47;;;;;;;67.87;27.10;;;;;;;;;;5025135;28;20010;-87
2022/12/15 12:00:14;;;;;;;68.33;26.80;;;;;;;;;;5047336;28;20022;-88
2022/12/15 12:02:39;;;;;;;66.87;27.57;;;;;;;;;;5031748;28;20036;-88
2022/12/15 12:05:23;;;;;;;62.47;27.27;;;;;;;;;;5025261;28;20457;-87
2022/12/15 12:07:51;;;;;;;61.97;23.67;;;;;;;;;;5028007;28;20409;-87
2022/12/15 12:10:16;;;;;;;62.57;26.43;;;;;;;;;;5024585;28;20026;-87
2022/12/15 12:12:51;;;;;;;74.37;27.97;;;;;;;;;;5045352;28;20035;-86
2022/12/15 12:15:16;;;;;;;66.30;27.50;;;;;;;;;;5029917;28;20143;-86
2022/12/15 12:17:51;;;;;;;64.23;26.50;;;;;;;;;;5029209;28;20066;-86
2022/12/15 12:20:25;;;;;;;66.33;29.03;;;;;;;;;;5027900;28;20030;-86
2022/12/15 12:22:56;;;;;;;68.63;28.50;;;;;;;;;;5029243;28;20037;-86
2022/12/15 12:25:21;;;;;;;67.20;29.30;;;;;;;;;;5032089;28;20041;-86
2022/12/15 12:27:54;;;;;;;74.93;29.47;;;;;;;;;;5018932;28;20319;-88
2022/12/15 12:30:21;;;;;;;65.63;30.43;;;;;;;;;;5031285;28;20099;-88
2022/12/15 12:32:50;;;;;;;69.27;30.90;;;;;;;;;;5031201;28;20021;-87
2022/12/15 12:35:20;;;;;;;66.40;28.73;;;;;;;;;;5031447;28;20017;-87
2022/12/15 12:37:50;;;;;;;66.03;29.87;;;;;;;;;;5028929;28;20187;-86
2022/12/15 12:40:23;;;;;;;71.23;30.40;;;;;;;;;;5030798;28;20037;-87
2022/12/15 12:42:52;;;;;;;64.87;27.20;;;;;;;;;;5028225;28;20025;-87
2022/12/15 12:45:18;;;;;;;69.50;28.80;;;;;;;;;;5030878;28;20021;-87
2022/12/15 12:47:49;;;;;;;66.77;27.40;;;;;;;;;;5024531;28;20026;-87
2022/12/15 12:50:14;;;;;;;71.20;28.17;;;;;;;;;;5031284;28;20017;-89
2022/12/15 12:52:45;;;;;;;73.30;28.67;;;;;;;;;;5028356;28;20013;-88
2022/12/15 12:55:10;;;;;;;68.83;27.50;;;;;;;;;;5046762;28;20020;-89
2022/12/15 12:57:39;;;;;;;71.10;26.37;;;;;;;;;;5030630;28;20279;-88
2022/12/15 13:00:14;;;;;;;64.57;26.67;;;;;;;;;;5030901;28;20030;-89
2022/12/15 13:02:42;;;;;;;59.83;25.97;;;;;;;;;;5031779;28;20021;-89
2022/12/15 13:05:27;;;;;;;63.43;26.27;;;;;;;;;;5031633;28;20067;-89
2022/12/15 13:07:54;;;;;;;68.53;27.37;;;;;;;;;;5047838;28;20048;-87
2022/12/15 13:10:20;;;;;;;78.37;29.67;;;;;;;;;;5032373;28;20044;-87
2022/12/15 13:12:50;;;;;;;82.10;30.40;;;;;;;;;;5032795;28;20040;-88
2022/12/15 13:15:27;;;;;;;69.27;26.83;;;;;;;;;;5034622;28;20021;-88
2022/12/15 13:18:14;;;;;;;73.17;29.50;;;;;;;;;;5032045;28;20117;-88
2022/12/15 13:20:39;;;;;;;61.93;25.63;;;;;;;;;;5029498;28;20021;-88
2022/12/15 13:23:20;;;;;;;66.73;27.27;;;;;;;;;;5039535;28;20476;-89
2022/12/15 13:25:51;;;;;;;63.37;25.30;;;;;;;;;;5044704;28;20380;-89
2022/12/15 13:28:16;;;;;;;70.47;28.07;;;;;;;;;;5028094;28;20034;-88
2022/12/15 13:31:00;;;;;;;67.63;26.20;;;;;;;;;;5044227;28;20104;-90
2022/12/15 13:33:26;;;;;;;100.80;32.63;;;;;;;;;;5038716;28;20026;-88
2022/12/15 13:35:51;;;;;;;79.40;28.77;;;;;;;;;;5034271;28;20079;-89
2022/12/15 13:38:17;;;;;;;66.63;26.77;;;;;;;;;;5034455;28;20024;-88
2022/12/15 13:40:50;;;;;;;66.03;25.10;;;;;;;;;;5034724;28;20026;-89
2022/12/15 13:43:30;;;;;;;67.77;25.03;;;;;;;;;;5034794;28;20045;-89
2022/12/15 13:46:04;;;;;;;82.20;36.47;;;;;;;;;;5050310;28;20463;-89
2022/12/15 13:48:29;;;;;;;62.10;26.20;;;;;;;;;;5040506;28;20032;-89
2022/12/15 13:50:59;;;;;;;57.17;23.80;;;;;;;;;;5026844;28;20441;-89
2022/12/15 13:53:26;;;;;;;56.20;23.50;;;;;;;;;;5034481;28;20041;-88
2022/12/15 13:56:10;;;;;;;57.00;24.47;;;;;;;;;;5024411;28;20033;-89
2022/12/15 13:58:39;;;;;;;67.93;27.37;;;;;;;;;;5049232;28;20225;-88
2022/12/15 14:01:16;;;;;;;60.07;25.23;;;;;;;;;;5035374;28;20028;-89
2022/12/15 14:03:55;;;;;;;67.77;24.00;;;;;;;;;;5035194;28;20029;-88
2022/12/15 14:06:20;;;;;;;61.07;24.83;;;;;;;;;;5033173;28;20487;-87
2022/12/15 14:08:46;;;;;;;58.60;24.67;;;;;;;;;;5023740;28;20017;-87
2022/12/15 14:11:19;;;;;;;54.80;23.97;;;;;;;;;;5033267;28;20052;-87
2022/12/15 14:13:44;;;;;;;57.27;26.37;;;;;;;;;;5033784;28;20032;-87
2022/12/15 14:16:13;;;;;;;56.43;24.73;;;;;;;;;;5031666;28;20009;-87
2022/12/15 14:18:39;;;;;;;59.00;24.83;;;;;;;;;;5034690;28;20076;-87
2022/12/15 14:21:06;;;;;;;61.23;24.97;;;;;;;;;;5032932;28;20026;-87
2022/12/15 14:23:42;;;;;;;58.47;25.13;;;;;;;;;;5033939;28;20156;-87
2022/12/15 14:26:10;;;;;;;58.33;25.80;;;;;;;;;;5048344;28;20064;-86
2022/12/15 14:28:36;;;;;;;56.17;24.63;;;;;;;;;;5033191;28;20026;-87
2022/12/15 14:31:14;;;;;;;59.70;23.90;;;;;;;;;;5032730;28;20037;-87
2022/12/15 14:33:41;;;;;;;57.43;23.97;;;;;;;;;;5030882;28;20099;-86
2022/12/15 14:36:08;;;;;;;54.17;23.80;;;;;;;;;;5030748;28;20083;-86
2022/12/15 14:38:44;;;;;;;61.57;25.43;;;;;;;;;;5033707;28;20104;-87
2022/12/15 14:41:18;;;;;;;54.63;22.97;;;;;;;;;;5028719;28;20025;-87
2022/12/15 14:43:43;;;;;;;49.57;21.97;;;;;;;;;;5034067;28;20028;-86
2022/12/15 14:46:10;;;;;;;61.33;23.47;;;;;;;;;;5032450;28;20018;-86
2022/12/15 14:48:37;;;;;;;55.73;23.13;;;;;;;;;;5032274;28;20037;-87
2022/12/15 14:51:03;;;;;;;52.30;21.87;;;;;;;;;;5031650;28;20515;-86
2022/12/15 14:53:30;;;;;;;51.37;22.70;;;;;;;;;;5032315;28;20029;-86
2022/12/15 14:55:55;;;;;;;54.80;24.23;;;;;;;;;;5022286;28;20105;-87
2022/12/15 14:58:29;;;;;;;49.27;22.07;;;;;;;;;;5033064;28;20072;-87
2022/12/15 15:00:54;;;;;;;54.07;23.57;;;;;;;;;;5031126;28;20021;-88
2022/12/15 15:03:22;;;;;;;56.40;24.43;;;;;;;;;;5029361;28;20156;-87
2022/12/15 15:05:50;;;;;;;55.77;23.50;;;;;;;;;;5025441;28;20030;-86
2022/12/15 15:08:20;;;;;;;63.20;26.50;;;;;;;;;;5032728;28;20021;-87
2022/12/15 15:10:45;;;;;;;56.83;22.63;;;;;;;;;;5028809;28;20029;-87
2022/12/15 15:13:18;;;;;;;52.40;23.50;;;;;;;;;;5021618;28;20063;-86
2022/12/15 15:15:50;;;;;;;59.03;23.63;;;;;;;;;;5026232;28;20032;-87
2022/12/15 15:18:15;;;;;;;56.97;23.45;;;;;;;;;;5029621;28;20374;-86
2022/12/15 15:20:48;;;;;;;56.47;24.73;;;;;;;;;;5030900;28;20025;-86
2022/12/15 15:23:17;;;;;;;65.13;28.37;;;;;;;;;;5030967;28;20057;-87
2022/12/15 15:25:55;;;;;;;61.60;24.27;;;;;;;;;;5033548;28;20033;-88
2022/12/15 15:28:22;;;;;;;64.00;26.60;;;;;;;;;;5025301;28;20084;-84
2022/12/15 15:30:47;;;;;;;64.23;26.63;;;;;;;;;;5050384;28;20226;-85
2022/12/15 15:33:13;;;;;;;65.20;25.50;;;;;;;;;;5044274;28;20045;-86
2022/12/15 15:35:39;;;;;;;61.47;23.90;;;;;;;;;;5025294;28;20392;-86
2022/12/15 15:38:15;;;;;;;54.87;23.27;;;;;;;;;;5031781;28;20052;-84
2022/12/15 15:40:40;;;;;;;61.30;24.00;;;;;;;;;;5029969;28;20032;-83
2022/12/15 15:43:12;;;;;;;56.87;24.27;;;;;;;;;;5031575;28;20326;-85
2022/12/15 15:45:39;;;;;;;60.03;24.37;;;;;;;;;;5031067;28;20033;-85
2022/12/15 15:48:04;;;;;;;67.20;26.47;;;;;;;;;;5033043;28;20029;-85
2022/12/15 15:50:31;;;;;;;65.63;28.70;;;;;;;;;;5029793;28;20847;-86
2022/12/15 15:52:56;;;;;;;62.97;27.00;;;;;;;;;;5032026;28;20017;-85
2022/12/15 15:55:27;;;;;;;67.87;26.97;;;;;;;;;;5032828;28;20532;-86
2022/12/15 15:57:52;;;;;;;66.87;27.53;;;;;;;;;;5029513;28;20033;-85
2022/12/15 16:00:20;;;;;;;62.23;26.87;;;;;;;;;;5030572;28;20024;-86
2022/12/15 16:02:45;;;;;;;61.17;26.90;;;;;;;;;;5033855;28;20025;-86
2022/12/15 16:05:10;;;;;;;65.77;26.73;;;;;;;;;;5036162;28;20488;-87
2022/12/15 16:07:36;;;;;;;67.33;25.43;;;;;;;;;;5031559;28;20152;-88
2022/12/15 16:10:02;;;;;;;60.03;25.30;;;;;;;;;;5029655;28;20435;-86
2022/12/15 16:12:48;;;;;;;62.50;25.13;;;;;;;;;;5031289;28;20025;-87
2022/12/15 16:15:14;;;;;;;63.17;26.53;;;;;;;;;;5029102;28;20026;-87
2022/12/15 16:17:40;;;;;;;67.60;26.70;;;;;;;;;;5031300;28;20025;-87
2022/12/15 16:20:06;;;;;;;80.47;32.87;;;;;;;;;;5032714;28;20366;-84
2022/12/15 16:22:32;;;;;;;68.80;28.03;;;;;;;;;;5031606;28;20075;-89
2022/12/15 16:24:57;;;;;;;81.47;31.30;;;;;;;;;;5032850;28;20594;-88
2022/12/15 16:27:22;;;;;;;63.07;26.93;;;;;;;;;;5031710;28;20071;-88
2022/12/15 16:29:48;;;;;;;71.57;29.03;;;;;;;;;;5023755;28;20052;-88
2022/12/15 16:32:13;;;;;;;71.13;29.53;;;;;;;;;;5031810;28;20448;-88
2022/12/15 16:34:40;;;;;;;66.60;27.67;;;;;;;;;;5031480;28;20013;-88
2022/12/15 16:37:10;;;;;;;71.00;27.60;;;;;;;;;;5031025;28;20029;-86
2022/12/15 16:39:35;;;;;;;64.20;27.60;;;;;;;;;;5028735;28;20109;-85
2022/12/15 16:42:00;;;;;;;63.47;27.33;;;;;;;;;;5030957;28;20357;-86
2022/12/15 16:44:26;;;;;;;49.83;20.27;;;;;;;;;;5026877;28;20053;-86